SVA211 OEJN-LIMC
Flight info
| Callsign | SVA211 |
|---|---|
| Flight time | N/A |
| Altitude | 36000 |
| Route | BOMOX M686 OTEMO T55 KUNKI P751 METRU DCT TRL DCT LATAN DCT LOMED DCT BEROK DCT MIVKI DCT GOLAS T648 MEBUR |
| Aircraft | A333/H-SDE3GHIJ2J3J5M1RVWXY/LB2D1 |
Departure
| Time | 2026-05-07 10:32 |
|---|---|
| Airport | King Abdulaziz International Airport (OEJN) |
Arrival
| Time | N/A |
|---|---|
| Airport | Milan Malpensa International Airport (LIMC) |
| Time | Latitude | Longitude | Altitude | Speed | Heading |
|---|---|---|---|---|---|
| 2026-05-07 10:27 | 21.66449 | 39.17607 | 34 ft | 0 kts | 99° |
| 2026-05-07 10:28 | 21.66445 | 39.17629 | 34 ft | 6 kts | 100° |
| 2026-05-07 10:29 | 21.66434 | 39.17690 | 34 ft | 10 kts | 102° |
| 2026-05-07 10:29 | 21.66448 | 39.17759 | 34 ft | 8 kts | 45° |
| 2026-05-07 10:29 | 21.66500 | 39.17754 | 34 ft | 7 kts | 315° |
| 2026-05-07 10:30 | 21.66542 | 39.17762 | 34 ft | 5 kts | 49° |
| 2026-05-07 10:30 | 21.66563 | 39.17802 | 34 ft | 7 kts | 54° |
| 2026-05-07 10:30 | 21.66595 | 39.17853 | 35 ft | 9 kts | 63° |
| 2026-05-07 10:30 | 21.66622 | 39.17915 | 35 ft | 10 kts | 64° |
| 2026-05-07 10:31 | 21.66651 | 39.17995 | 36 ft | 12 kts | 71° |
| 2026-05-07 10:31 | 21.66699 | 39.18023 | 36 ft | 7 kts | 4° |
| 2026-05-07 10:31 | 21.66740 | 39.18013 | 36 ft | 0 kts | 340° |
| 2026-05-07 10:31 | 21.66797 | 39.17992 | 36 ft | 32 kts | 340° |
| 2026-05-07 10:32 | 21.67222 | 39.17824 | 35 ft | 98 kts | 339° |
| 2026-05-07 10:32 | 21.68056 | 39.17494 | 34 ft | 157 kts | 340° |
| 2026-05-07 10:32 | 21.69242 | 39.17006 | 217 ft | 202 kts | 338° |
| 2026-05-07 10:32 | 21.70638 | 39.16400 | 767 ft | 228 kts | 338° |
| 2026-05-07 10:33 | 21.72156 | 39.15802 | 1634 ft | 232 kts | 342° |
| 2026-05-07 10:33 | 21.73690 | 39.15328 | 2282 ft | 230 kts | 346° |
| 2026-05-07 10:33 | 21.75295 | 39.15146 | 2766 ft | 233 kts | 1° |
| 2026-05-07 10:33 | 21.76889 | 39.15415 | 3366 ft | 232 kts | 14° |
| 2026-05-07 10:34 | 21.78436 | 39.15954 | 3888 ft | 234 kts | 20° |
| 2026-05-07 10:34 | 21.79919 | 39.16694 | 4326 ft | 239 kts | 28° |
| 2026-05-07 10:34 | 21.81360 | 39.17634 | 4829 ft | 241 kts | 31° |
| 2026-05-07 10:34 | 21.82512 | 39.18950 | 5153 ft | 251 kts | 61° |
| 2026-05-07 10:35 | 21.83364 | 39.20650 | 5361 ft | 264 kts | 57° |
| 2026-05-07 10:35 | 21.84472 | 39.22282 | 5566 ft | 277 kts | 48° |
| 2026-05-07 10:35 | 21.85840 | 39.23794 | 5924 ft | 285 kts | 42° |
| 2026-05-07 10:35 | 21.87349 | 39.25195 | 6427 ft | 288 kts | 39° |
| 2026-05-07 10:36 | 21.88936 | 39.26537 | 6945 ft | 292 kts | 37° |
| 2026-05-07 10:36 | 21.90570 | 39.27842 | 7455 ft | 294 kts | 35° |
| 2026-05-07 10:36 | 21.92253 | 39.29110 | 7990 ft | 296 kts | 30° |
| 2026-05-07 10:36 | 21.94191 | 39.29812 | 8474 ft | 299 kts | 0° |
| 2026-05-07 10:37 | 21.96247 | 39.29440 | 8925 ft | 303 kts | 340° |
| 2026-05-07 10:37 | 21.98238 | 39.28667 | 9426 ft | 305 kts | 337° |
| 2026-05-07 10:37 | 22.00224 | 39.27840 | 9940 ft | 308 kts | 337° |
| 2026-05-07 10:37 | 22.02254 | 39.27014 | 10288 ft | 318 kts | 337° |
| 2026-05-07 10:38 | 22.04372 | 39.26153 | 10512 ft | 332 kts | 336° |
| 2026-05-07 10:38 | 22.06445 | 39.24980 | 10751 ft | 343 kts | 320° |
| 2026-05-07 10:38 | 22.08104 | 39.23110 | 10997 ft | 351 kts | 302° |
| 2026-05-07 10:38 | 22.09394 | 39.20861 | 11216 ft | 364 kts | 297° |
| 2026-05-07 10:39 | 22.10671 | 39.18426 | 11576 ft | 371 kts | 296° |
| 2026-05-07 10:39 | 22.11945 | 39.15996 | 12068 ft | 374 kts | 296° |
| 2026-05-07 10:39 | 22.13235 | 39.13552 | 12609 ft | 376 kts | 296° |
| 2026-05-07 10:39 | 22.14520 | 39.11127 | 13143 ft | 378 kts | 296° |
| 2026-05-07 10:40 | 22.15835 | 39.08657 | 13683 ft | 380 kts | 296° |
| 2026-05-07 10:40 | 22.17157 | 39.06179 | 14236 ft | 382 kts | 296° |
| 2026-05-07 10:40 | 22.18483 | 39.03692 | 14757 ft | 384 kts | 296° |
| 2026-05-07 10:40 | 22.19819 | 39.01190 | 15262 ft | 386 kts | 296° |
| 2026-05-07 10:41 | 22.21165 | 38.98668 | 15779 ft | 388 kts | 295° |
| 2026-05-07 10:41 | 22.22515 | 38.96137 | 16282 ft | 390 kts | 295° |
| 2026-05-07 10:41 | 22.23870 | 38.93593 | 16770 ft | 392 kts | 295° |
| 2026-05-07 10:41 | 22.25236 | 38.91030 | 17250 ft | 394 kts | 295° |
| 2026-05-07 10:42 | 22.26606 | 38.88458 | 17727 ft | 397 kts | 295° |
| 2026-05-07 10:42 | 22.27982 | 38.85873 | 18204 ft | 398 kts | 295° |
| 2026-05-07 10:42 | 22.29366 | 38.83272 | 18628 ft | 400 kts | 295° |
| 2026-05-07 10:42 | 22.30756 | 38.80657 | 19041 ft | 403 kts | 295° |
| 2026-05-07 10:43 | 22.32156 | 38.78024 | 19478 ft | 405 kts | 295° |
| 2026-05-07 10:43 | 22.33557 | 38.75385 | 19898 ft | 406 kts | 295° |
| 2026-05-07 10:43 | 22.34967 | 38.72727 | 20283 ft | 408 kts | 295° |
| 2026-05-07 10:43 | 22.36383 | 38.70060 | 20678 ft | 411 kts | 295° |
| 2026-05-07 10:44 | 22.37807 | 38.67379 | 21081 ft | 412 kts | 295° |
| 2026-05-07 10:44 | 22.39235 | 38.64685 | 21461 ft | 414 kts | 295° |
| 2026-05-07 10:44 | 22.40669 | 38.61979 | 21824 ft | 416 kts | 295° |
| 2026-05-07 10:44 | 22.42106 | 38.59264 | 22181 ft | 417 kts | 295° |
| 2026-05-07 10:45 | 22.43549 | 38.56538 | 22521 ft | 419 kts | 295° |
| 2026-05-07 10:45 | 22.44999 | 38.53799 | 22885 ft | 420 kts | 295° |
| 2026-05-07 10:45 | 22.46452 | 38.51050 | 23240 ft | 422 kts | 295° |
| 2026-05-07 10:45 | 22.47917 | 38.48294 | 23529 ft | 425 kts | 296° |
| 2026-05-07 10:46 | 22.49597 | 38.45642 | 23851 ft | 431 kts | 304° |
| 2026-05-07 10:46 | 22.51682 | 38.43287 | 24188 ft | 436 kts | 312° |
| 2026-05-07 10:46 | 22.53966 | 38.41103 | 24526 ft | 439 kts | 314° |
| 2026-05-07 10:46 | 22.56329 | 38.38997 | 24810 ft | 442 kts | 316° |
| 2026-05-07 10:47 | 22.58746 | 38.36921 | 25089 ft | 445 kts | 316° |
| 2026-05-07 10:47 | 22.61188 | 38.34851 | 25351 ft | 447 kts | 316° |
| 2026-05-07 10:47 | 22.63607 | 38.32800 | 25657 ft | 448 kts | 316° |
| 2026-05-07 10:47 | 22.66062 | 38.30706 | 25935 ft | 450 kts | 316° |
| 2026-05-07 10:48 | 22.68521 | 38.28594 | 26207 ft | 452 kts | 315° |
| 2026-05-07 10:48 | 22.71020 | 38.26438 | 26485 ft | 454 kts | 315° |
| 2026-05-07 10:48 | 22.73491 | 38.24298 | 26736 ft | 456 kts | 315° |
| 2026-05-07 10:48 | 22.75970 | 38.22148 | 27004 ft | 458 kts | 315° |
| 2026-05-07 10:49 | 22.78461 | 38.19985 | 27280 ft | 459 kts | 315° |
| 2026-05-07 10:49 | 22.80958 | 38.17816 | 27536 ft | 461 kts | 315° |
| 2026-05-07 10:49 | 22.83465 | 38.15636 | 27778 ft | 463 kts | 315° |
| 2026-05-07 10:49 | 22.85980 | 38.13450 | 28039 ft | 465 kts | 314° |
| 2026-05-07 10:50 | 22.88506 | 38.11253 | 28304 ft | 466 kts | 314° |
| 2026-05-07 10:50 | 22.91009 | 38.09075 | 28534 ft | 468 kts | 314° |
| 2026-05-07 10:50 | 22.93552 | 38.06860 | 28747 ft | 471 kts | 314° |
| 2026-05-07 10:50 | 22.96113 | 38.04631 | 28989 ft | 472 kts | 314° |
| 2026-05-07 10:51 | 22.98678 | 38.02397 | 29222 ft | 474 kts | 314° |
| 2026-05-07 10:51 | 23.01251 | 38.00155 | 29446 ft | 475 kts | 314° |
| 2026-05-07 10:51 | 23.03832 | 37.97905 | 29681 ft | 477 kts | 314° |
| 2026-05-07 10:51 | 23.06421 | 37.95647 | 29915 ft | 478 kts | 314° |
| 2026-05-07 10:52 | 23.09018 | 37.93382 | 30138 ft | 479 kts | 313° |
| 2026-05-07 10:52 | 23.11617 | 37.91112 | 30354 ft | 480 kts | 313° |